ΕΜΥ, Εθνική Μετεωρολογική Υπηρεσία - Δελτία Καιρού, Προγνώσεις

ΑΕΡΟΝΑΥΤΙΛΙΑ

GREEK AIRPORTS CODES

LGTT 040600Z 00000KT 9999 FEW025 03/02 Q1016 RMK SCT180 Q 1015.9=

EUROPEAN AIRPORTS CODES

TAF LGTT 040700Z 0409/0418 24010KT 9999 FEW020 SCT030 BECMG 0410/0412 30010KT PROB40 TEMPO 0410/0415 5000 RA FEW018TCU BKN030 PROB30 TEMPO 0410/0415 4000 TSRA SCT012 FEW018CB BKN025=